sensor_id;sensor_type;location;lat;lon;timestamp;pressure;altitude;pressure_sealevel;temperature;humidity
57024;BME280;42916;54.346;18.562;2023-02-13T00:00:46;101943.88;;;4.71;100.00
57024;BME280;42916;54.346;18.562;2023-02-13T00:03:21;101942.90;;;4.68;100.00
57024;BME280;42916;54.346;18.562;2023-02-13T00:05:48;101943.11;;;4.68;100.00
57024;BME280;42916;54.346;18.562;2023-02-13T00:08:15;101934.44;;;4.65;100.00
57024;BME280;42916;54.346;18.562;2023-02-13T00:10:42;101940.25;;;4.62;100.00
57024;BME280;42916;54.346;18.562;2023-02-13T00:13:09;101936.48;;;4.57;100.00
57024;BME280;42916;54.346;18.562;2023-02-13T00:15:36;101932.09;;;4.53;100.00
57024;BME280;42916;54.346;18.562;2023-02-13T00:18:03;101931.73;;;4.51;100.00
57024;BME280;42916;54.346;18.562;2023-02-13T00:20:30;101931.77;;;4.51;100.00
57024;BME280;42916;54.346;18.562;2023-02-13T00:22:58;101938.00;;;4.53;100.00
57024;BME280;42916;54.346;18.562;2023-02-13T00:25:24;101935.77;;;4.54;100.00
57024;BME280;42916;54.346;18.562;2023-02-13T00:27:52;101937.42;;;4.53;100.00
57024;BME280;42916;54.346;18.562;2023-02-13T00:30:19;101935.82;;;4.53;100.00
57024;BME280;42916;54.346;18.562;2023-02-13T00:32:47;101941.45;;;4.54;100.00
57024;BME280;42916;54.346;18.562;2023-02-13T00:35:13;101935.70;;;4.56;100.00
57024;BME280;42916;54.346;18.562;2023-02-13T00:37:40;101938.84;;;4.55;100.00
57024;BME280;42916;54.346;18.562;2023-02-13T00:40:07;101937.83;;;4.55;100.00
57024;BME280;42916;54.346;18.562;2023-02-13T00:42:34;101941.14;;;4.52;100.00
57024;BME280;42916;54.346;18.562;2023-02-13T00:45:01;101942.86;;;4.48;100.00
57024;BME280;42916;54.346;18.562;2023-02-13T00:47:29;101940.35;;;4.45;100.00
57024;BME280;42916;54.346;18.562;2023-02-13T00:49:56;101939.95;;;4.42;100.00
57024;BME280;42916;54.346;18.562;2023-02-13T00:52:23;101943.50;;;4.41;100.00
57024;BME280;42916;54.346;18.562;2023-02-13T00:54:50;101944.52;;;4.40;100.00
57024;BME280;42916;54.346;18.562;2023-02-13T00:57:17;101940.98;;;4.38;100.00
57024;BME280;42916;54.346;18.562;2023-02-13T00:59:44;101944.05;;;4.38;100.00
57024;BME280;42916;54.346;18.562;2023-02-13T01:02:11;101944.06;;;4.38;100.00
57024;BME280;42916;54.346;18.562;2023-02-13T01:04:39;101942.52;;;4.37;100.00
57024;BME280;42916;54.346;18.562;2023-02-13T01:07:06;101941.44;;;4.36;100.00
57024;BME280;42916;54.346;18.562;2023-02-13T01:09:34;101938.70;;;4.34;100.00
57024;BME280;42916;54.346;18.562;2023-02-13T01:12:01;101932.81;;;4.36;100.00
57024;BME280;42916;54.346;18.562;2023-02-13T01:14:28;101937.61;;;4.35;100.00
57024;BME280;42916;54.346;18.562;2023-02-13T01:16:55;101935.37;;;4.32;100.00
57024;BME280;42916;54.346;18.562;2023-02-13T01:19:22;101938.29;;;4.32;100.00
57024;BME280;42916;54.346;18.562;2023-02-13T01:21:49;101936.06;;;4.31;100.00
57024;BME280;42916;54.346;18.562;2023-02-13T01:24:18;101935.20;;;4.31;100.00
57024;BME280;42916;54.346;18.562;2023-02-13T01:26:45;101928.27;;;4.28;100.00
57024;BME280;42916;54.346;18.562;2023-02-13T01:29:12;101930.80;;;4.26;100.00
57024;BME280;42916;54.346;18.562;2023-02-13T01:31:39;101922.70;;;4.27;100.00
57024;BME280;42916;54.346;18.562;2023-02-13T01:34:06;101920.36;;;4.27;100.00
57024;BME280;42916;54.346;18.562;2023-02-13T01:36:33;101918.05;;;4.28;100.00
57024;BME280;42916;54.346;18.562;2023-02-13T01:39:00;101912.89;;;4.28;100.00
57024;BME280;42916;54.346;18.562;2023-02-13T01:41:27;101913.27;;;4.26;100.00
57024;BME280;42916;54.346;18.562;2023-02-13T01:43:59;101912.24;;;4.22;100.00
57024;BME280;42916;54.346;18.562;2023-02-13T01:46:34;101904.08;;;4.20;100.00
57024;BME280;42916;54.346;18.562;2023-02-13T01:49:15;101905.59;;;4.20;100.00
57024;BME280;42916;54.346;18.562;2023-02-13T01:51:45;101903.05;;;4.18;100.00
57024;BME280;42916;54.346;18.562;2023-02-13T01:54:22;101906.75;;;4.19;100.00
57024;BME280;42916;54.346;18.562;2023-02-13T01:57:04;101897.92;;;4.21;100.00
57024;BME280;42916;54.346;18.562;2023-02-13T01:59:40;101890.65;;;4.20;100.00
57024;BME280;42916;54.346;18.562;2023-02-13T02:02:11;101889.04;;;4.18;100.00
57024;BME280;42916;54.346;18.562;2023-02-13T02:04:40;101883.48;;;4.18;100.00
57024;BME280;42916;54.346;18.562;2023-02-13T02:07:17;101881.05;;;4.19;100.00
57024;BME280;42916;54.346;18.562;2023-02-13T02:09:46;101880.85;;;4.19;100.00
57024;BME280;42916;54.346;18.562;2023-02-13T02:12:26;101877.67;;;4.20;100.00
57024;BME280;42916;54.346;18.562;2023-02-13T02:14:58;101881.45;;;4.19;100.00
57024;BME280;42916;54.346;18.562;2023-02-13T02:17:28;101885.34;;;4.16;100.00
57024;BME280;42916;54.346;18.562;2023-02-13T02:20:13;101889.75;;;4.15;100.00
57024;BME280;42916;54.346;18.562;2023-02-13T02:37:28;101880.73;;;4.19;100.00
57024;BME280;42916;54.346;18.562;2023-02-13T02:45:23;101890.39;;;4.28;100.00
57024;BME280;42916;54.346;18.562;2023-02-13T02:47:58;101887.07;;;4.32;100.00
57024;BME280;42916;54.346;18.562;2023-02-13T02:51:07;101884.57;;;4.33;100.00
57024;BME280;42916;54.346;18.562;2023-02-13T02:53:38;101885.27;;;4.35;100.00
57024;BME280;42916;54.346;18.562;2023-02-13T02:56:22;101884.34;;;4.39;100.00
57024;BME280;42916;54.346;18.562;2023-02-13T02:59:03;101884.98;;;4.42;100.00
57024;BME280;42916;54.346;18.562;2023-02-13T03:01:52;101879.02;;;4.47;100.00
57024;BME280;42916;54.346;18.562;2023-02-13T03:04:45;101882.27;;;4.50;100.00
57024;BME280;42916;54.346;18.562;2023-02-13T03:07:32;101880.98;;;4.52;100.00
57024;BME280;42916;54.346;18.562;2023-02-13T03:10:06;101879.12;;;4.53;100.00
57024;BME280;42916;54.346;18.562;2023-02-13T03:16:01;101877.85;;;4.58;100.00
57024;BME280;42916;54.346;18.562;2023-02-13T03:18:52;101878.04;;;4.61;100.00
57024;BME280;42916;54.346;18.562;2023-02-13T03:29:50;101872.33;;;4.62;100.00
57024;BME280;42916;54.346;18.562;2023-02-13T03:41:24;101876.08;;;4.61;100.00
57024;BME280;42916;54.346;18.562;2023-02-13T03:46:30;101872.11;;;4.56;100.00
57024;BME280;42916;54.346;18.562;2023-02-13T03:49:04;101873.59;;;4.55;100.00
57024;BME280;42916;54.346;18.562;2023-02-13T03:52:03;101872.13;;;4.57;100.00
57024;BME280;42916;54.346;18.562;2023-02-13T03:57:20;101866.20;;;4.58;100.00
57024;BME280;42916;54.346;18.562;2023-02-13T04:00:09;101860.65;;;4.56;100.00
57024;BME280;42916;54.346;18.562;2023-02-13T04:03:27;101861.48;;;4.56;100.00
57024;BME280;42916;54.346;18.562;2023-02-13T04:06:01;101863.38;;;4.56;100.00
57024;BME280;42916;54.346;18.562;2023-02-13T04:08:29;101871.67;;;4.58;100.00
57024;BME280;42916;54.346;18.562;2023-02-13T04:11:02;101875.30;;;4.61;100.00
57024;BME280;42916;54.346;18.562;2023-02-13T04:13:35;101875.60;;;4.66;100.00
57024;BME280;42916;54.346;18.562;2023-02-13T04:16:09;101872.55;;;4.69;100.00
57024;BME280;42916;54.346;18.562;2023-02-13T04:18:37;101874.09;;;4.73;100.00
57024;BME280;42916;54.346;18.562;2023-02-13T04:21:06;101880.63;;;4.75;100.00
57024;BME280;42916;54.346;18.562;2023-02-13T04:23:34;101874.23;;;4.78;100.00
57024;BME280;42916;54.346;18.562;2023-02-13T04:26:04;101873.73;;;4.82;100.00
57024;BME280;42916;54.346;18.562;2023-02-13T04:28:31;101880.41;;;4.87;100.00
57024;BME280;42916;54.346;18.562;2023-02-13T04:30:59;101872.33;;;4.92;100.00
57024;BME280;42916;54.346;18.562;2023-02-13T04:33:26;101871.15;;;4.95;100.00
57024;BME280;42916;54.346;18.562;2023-02-13T04:35:52;101873.94;;;4.97;100.00
57024;BME280;42916;54.346;18.562;2023-02-13T04:38:19;101874.73;;;4.99;100.00
57024;BME280;42916;54.346;18.562;2023-02-13T04:40:46;101873.60;;;5.01;100.00
57024;BME280;42916;54.346;18.562;2023-02-13T04:43:13;101872.25;;;5.05;100.00
57024;BME280;42916;54.346;18.562;2023-02-13T04:45:40;101873.31;;;5.10;100.00
57024;BME280;42916;54.346;18.562;2023-02-13T04:48:07;101876.33;;;5.13;100.00
57024;BME280;42916;54.346;18.562;2023-02-13T04:50:34;101880.63;;;5.15;100.00
57024;BME280;42916;54.346;18.562;2023-02-13T04:53:01;101880.58;;;5.15;100.00
57024;BME280;42916;54.346;18.562;2023-02-13T04:55:28;101878.89;;;5.16;100.00
57024;BME280;42916;54.346;18.562;2023-02-13T04:57:55;101884.47;;;5.16;100.00
57024;BME280;42916;54.346;18.562;2023-02-13T05:00:24;101884.43;;;5.19;100.00
57024;BME280;42916;54.346;18.562;2023-02-13T05:02:51;101882.20;;;5.23;100.00
57024;BME280;42916;54.346;18.562;2023-02-13T05:05:20;101882.48;;;5.25;100.00
57024;BME280;42916;54.346;18.562;2023-02-13T05:07:47;101888.64;;;5.26;100.00
57024;BME280;42916;54.346;18.562;2023-02-13T05:10:14;101885.02;;;5.28;100.00
57024;BME280;42916;54.346;18.562;2023-02-13T05:12:41;101885.69;;;5.28;100.00
57024;BME280;42916;54.346;18.562;2023-02-13T05:15:08;101888.45;;;5.30;100.00
57024;BME280;42916;54.346;18.562;2023-02-13T05:17:35;101881.55;;;5.33;100.00
57024;BME280;42916;54.346;18.562;2023-02-13T05:20:02;101884.42;;;5.35;99.86
57024;BME280;42916;54.346;18.562;2023-02-13T05:22:29;101889.58;;;5.35;100.00
57024;BME280;42916;54.346;18.562;2023-02-13T05:25:14;101890.95;;;5.36;99.79
57024;BME280;42916;54.346;18.562;2023-02-13T05:27:41;101900.98;;;5.34;99.56
57024;BME280;42916;54.346;18.562;2023-02-13T05:30:08;101906.48;;;5.34;99.88
57024;BME280;42916;54.346;18.562;2023-02-13T05:32:35;101901.95;;;5.32;99.56
57024;BME280;42916;54.346;18.562;2023-02-13T05:35:04;101907.49;;;5.34;99.26
57024;BME280;42916;54.346;18.562;2023-02-13T05:37:30;101903.91;;;5.37;99.30
57024;BME280;42916;54.346;18.562;2023-02-13T05:39:57;101906.77;;;5.39;99.46
57024;BME280;42916;54.346;18.562;2023-02-13T05:42:24;101910.21;;;5.39;98.82
57024;BME280;42916;54.346;18.562;2023-02-13T05:44:51;101906.88;;;5.38;98.26
57024;BME280;42916;54.346;18.562;2023-02-13T05:47:18;101905.13;;;5.37;98.19
57024;BME280;42916;54.346;18.562;2023-02-13T05:49:45;101903.91;;;5.37;98.33
57024;BME280;42916;54.346;18.562;2023-02-13T05:52:12;101909.07;;;5.37;98.24
57024;BME280;42916;54.346;18.562;2023-02-13T05:54:39;101904.96;;;5.40;98.08
57024;BME280;42916;54.346;18.562;2023-02-13T05:57:05;101904.06;;;5.40;98.00
57024;BME280;42916;54.346;18.562;2023-02-13T05:59:32;101903.17;;;5.40;97.73
57024;BME280;42916;54.346;18.562;2023-02-13T06:01:59;101902.20;;;5.41;97.78
57024;BME280;42916;54.346;18.562;2023-02-13T06:04:26;101900.31;;;5.40;97.44
57024;BME280;42916;54.346;18.562;2023-02-13T06:06:53;101905.90;;;5.41;97.04
57024;BME280;42916;54.346;18.562;2023-02-13T06:09:20;101907.27;;;5.43;97.33
57024;BME280;42916;54.346;18.562;2023-02-13T06:11:47;101908.14;;;5.44;97.36
57024;BME280;42916;54.346;18.562;2023-02-13T06:14:14;101912.48;;;5.42;97.16
57024;BME280;42916;54.346;18.562;2023-02-13T06:16:41;101910.59;;;5.41;96.98
57024;BME280;42916;54.346;18.562;2023-02-13T06:19:08;101908.52;;;5.41;97.28
57024;BME280;42916;54.346;18.562;2023-02-13T06:21:35;101907.91;;;5.39;97.15
57024;BME280;42916;54.346;18.562;2023-02-13T06:24:04;101916.98;;;5.42;97.12
57024;BME280;42916;54.346;18.562;2023-02-13T06:26:32;101913.48;;;5.43;96.83
57024;BME280;42916;54.346;18.562;2023-02-13T06:28:59;101916.67;;;5.43;97.05
57024;BME280;42916;54.346;18.562;2023-02-13T06:31:26;101915.77;;;5.43;97.07
57024;BME280;42916;54.346;18.562;2023-02-13T06:33:53;101917.13;;;5.42;96.89
57024;BME280;42916;54.346;18.562;2023-02-13T06:36:20;101917.64;;;5.41;96.91
57024;BME280;42916;54.346;18.562;2023-02-13T06:38:47;101915.86;;;5.41;96.72
57024;BME280;42916;54.346;18.562;2023-02-13T06:41:14;101919.48;;;5.41;96.63
57024;BME280;42916;54.346;18.562;2023-02-13T06:43:42;101919.70;;;5.42;96.90
57024;BME280;42916;54.346;18.562;2023-02-13T06:46:09;101918.65;;;5.42;96.86
57024;BME280;42916;54.346;18.562;2023-02-13T06:48:35;101913.73;;;5.42;97.04
57024;BME280;42916;54.346;18.562;2023-02-13T06:51:03;101908.66;;;5.42;97.01
57024;BME280;42916;54.346;18.562;2023-02-13T06:53:30;101912.92;;;5.44;97.27
57024;BME280;42916;54.346;18.562;2023-02-13T06:55:56;101911.38;;;5.46;97.07
57024;BME280;42916;54.346;18.562;2023-02-13T06:58:24;101915.02;;;5.50;96.77
57024;BME280;42916;54.346;18.562;2023-02-13T07:00:52;101918.42;;;5.51;96.65
57024;BME280;42916;54.346;18.562;2023-02-13T07:03:19;101912.44;;;5.52;96.66
57024;BME280;42916;54.346;18.562;2023-02-13T07:05:46;101910.95;;;5.52;96.75
57024;BME280;42916;54.346;18.562;2023-02-13T07:08:13;101915.87;;;5.53;96.60
57024;BME280;42916;54.346;18.562;2023-02-13T07:10:40;101911.63;;;5.54;96.48
57024;BME280;42916;54.346;18.562;2023-02-13T07:13:08;101913.74;;;5.57;96.48
57024;BME280;42916;54.346;18.562;2023-02-13T07:15:36;101913.33;;;5.60;96.48
57024;BME280;42916;54.346;18.562;2023-02-13T07:18:04;101904.61;;;5.63;96.53
57024;BME280;42916;54.346;18.562;2023-02-13T07:20:31;101899.77;;;5.64;96.69
57024;BME280;42916;54.346;18.562;2023-02-13T07:23:03;101902.95;;;5.66;96.71
57024;BME280;42916;54.346;18.562;2023-02-13T07:25:31;101902.03;;;5.69;96.77
57024;BME280;42916;54.346;18.562;2023-02-13T07:28:03;101902.44;;;5.72;96.43
57024;BME280;42916;54.346;18.562;2023-02-13T07:30:30;101897.83;;;5.74;96.14
57024;BME280;42916;54.346;18.562;2023-02-13T07:32:59;101897.66;;;5.77;95.98
57024;BME280;42916;54.346;18.562;2023-02-13T07:35:26;101892.91;;;5.79;95.74
57024;BME280;42916;54.346;18.562;2023-02-13T07:37:54;101897.38;;;5.81;95.78
57024;BME280;42916;54.346;18.562;2023-02-13T07:40:21;101895.08;;;5.83;95.73
57024;BME280;42916;54.346;18.562;2023-02-13T07:42:48;101893.11;;;5.88;95.58
57024;BME280;42916;54.346;18.562;2023-02-13T07:45:15;101886.27;;;5.92;95.77
57024;BME280;42916;54.346;18.562;2023-02-13T07:47:42;101885.20;;;6.00;95.27
57024;BME280;42916;54.346;18.562;2023-02-13T07:50:10;101887.61;;;6.07;95.00
57024;BME280;42916;54.346;18.562;2023-02-13T07:52:37;101885.71;;;6.12;94.64
57024;BME280;42916;54.346;18.562;2023-02-13T07:55:05;101884.02;;;6.14;94.42
57024;BME280;42916;54.346;18.562;2023-02-13T07:57:32;101886.27;;;6.16;94.54
57024;BME280;42916;54.346;18.562;2023-02-13T07:59:59;101893.20;;;6.15;94.16
57024;BME280;42916;54.346;18.562;2023-02-13T08:02:26;101887.45;;;6.14;93.98
57024;BME280;42916;54.346;18.562;2023-02-13T08:04:55;101887.67;;;6.16;94.22
57024;BME280;42916;54.346;18.562;2023-02-13T08:07:23;101882.65;;;6.20;94.43
57024;BME280;42916;54.346;18.562;2023-02-13T08:09:49;101893.77;;;6.21;92.93
57024;BME280;42916;54.346;18.562;2023-02-13T08:12:35;101887.27;;;6.16;92.43
57024;BME280;42916;54.346;18.562;2023-02-13T08:15:03;101885.80;;;6.15;92.62
57024;BME280;42916;54.346;18.562;2023-02-13T08:17:31;101885.34;;;6.15;92.11
57024;BME280;42916;54.346;18.562;2023-02-13T08:19:57;101884.00;;;6.18;92.18
57024;BME280;42916;54.346;18.562;2023-02-13T08:22:24;101889.55;;;6.23;92.33
57024;BME280;42916;54.346;18.562;2023-02-13T08:24:51;101882.61;;;6.27;92.01
57024;BME280;42916;54.346;18.562;2023-02-13T08:27:18;101879.94;;;6.29;91.24
57024;BME280;42916;54.346;18.562;2023-02-13T08:29:48;101877.13;;;6.27;91.03
57024;BME280;42916;54.346;18.562;2023-02-13T08:32:16;101881.13;;;6.30;91.29
57024;BME280;42916;54.346;18.562;2023-02-13T08:34:43;101881.20;;;6.34;91.28
57024;BME280;42916;54.346;18.562;2023-02-13T08:37:09;101878.99;;;6.34;91.11
57024;BME280;42916;54.346;18.562;2023-02-13T08:39:37;101875.21;;;6.34;90.90
57024;BME280;42916;54.346;18.562;2023-02-13T08:42:03;101875.44;;;6.32;90.71
57024;BME280;42916;54.346;18.562;2023-02-13T08:44:30;101870.12;;;6.32;90.95
57024;BME280;42916;54.346;18.562;2023-02-13T08:46:57;101871.59;;;6.30;90.97
57024;BME280;42916;54.346;18.562;2023-02-13T08:49:26;101876.63;;;6.30;90.50
57024;BME280;42916;54.346;18.562;2023-02-13T08:51:53;101870.52;;;6.31;90.79
57024;BME280;42916;54.346;18.562;2023-02-13T08:54:20;101868.13;;;6.33;91.12
57024;BME280;42916;54.346;18.562;2023-02-13T08:56:47;101865.83;;;6.35;90.99
57024;BME280;42916;54.346;18.562;2023-02-13T08:59:14;101859.27;;;6.36;90.67
57024;BME280;42916;54.346;18.562;2023-02-13T09:01:41;101862.52;;;6.40;91.07
57024;BME280;42916;54.346;18.562;2023-02-13T09:04:08;101866.24;;;6.47;91.03
57024;BME280;42916;54.346;18.562;2023-02-13T09:06:35;101871.73;;;6.51;90.37
57024;BME280;42916;54.346;18.562;2023-02-13T09:09:03;101865.35;;;6.53;89.82
57024;BME280;42916;54.346;18.562;2023-02-13T09:11:30;101870.25;;;6.57;90.07
57024;BME280;42916;54.346;18.562;2023-02-13T09:13:57;101876.58;;;6.61;89.82
57024;BME280;42916;54.346;18.562;2023-02-13T09:16:24;101883.41;;;6.67;89.67
57024;BME280;42916;54.346;18.562;2023-02-13T09:18:51;101877.27;;;6.74;88.76
57024;BME280;42916;54.346;18.562;2023-02-13T09:21:20;101880.80;;;6.77;88.83
57024;BME280;42916;54.346;18.562;2023-02-13T09:23:48;101882.35;;;6.81;88.70
57024;BME280;42916;54.346;18.562;2023-02-13T09:26:18;101887.04;;;6.81;88.26
57024;BME280;42916;54.346;18.562;2023-02-13T09:28:45;101895.42;;;6.83;88.72
57024;BME280;42916;54.346;18.562;2023-02-13T09:31:15;101890.45;;;6.81;88.68
57024;BME280;42916;54.346;18.562;2023-02-13T09:33:46;101894.22;;;6.79;88.51
57024;BME280;42916;54.346;18.562;2023-02-13T09:36:16;101884.52;;;6.75;87.98
57024;BME280;42916;54.346;18.562;2023-02-13T09:38:47;101882.54;;;6.71;88.30
57024;BME280;42916;54.346;18.562;2023-02-13T09:41:17;101886.34;;;6.69;88.26
57024;BME280;42916;54.346;18.562;2023-02-13T09:43:49;101880.77;;;6.69;88.03
57024;BME280;42916;54.346;18.562;2023-02-13T09:46:24;101879.95;;;6.75;88.44
57024;BME280;42916;54.346;18.562;2023-02-13T09:48:55;101891.71;;;6.87;88.34
57024;BME280;42916;54.346;18.562;2023-02-13T09:51:23;101882.39;;;6.95;88.59
57024;BME280;42916;54.346;18.562;2023-02-13T09:53:57;101889.19;;;7.01;87.46
57024;BME280;42916;54.346;18.562;2023-02-13T10:01:51;101882.85;;;7.27;86.26
57024;BME280;42916;54.346;18.562;2023-02-13T10:04:24;101879.27;;;7.39;86.54
57024;BME280;42916;54.346;18.562;2023-02-13T10:07:22;101870.42;;;7.50;86.14
57024;BME280;42916;54.346;18.562;2023-02-13T10:15:51;101866.63;;;7.76;83.25
57024;BME280;42916;54.346;18.562;2023-02-13T10:18:32;101866.80;;;7.78;82.98
57024;BME280;42916;54.346;18.562;2023-02-13T10:21:02;101864.08;;;7.77;81.48
57024;BME280;42916;54.346;18.562;2023-02-13T10:23:37;101870.58;;;7.76;80.49
57024;BME280;42916;54.346;18.562;2023-02-13T10:26:11;101863.27;;;7.71;80.51
57024;BME280;42916;54.346;18.562;2023-02-13T10:28:59;101866.50;;;7.70;79.88
57024;BME280;42916;54.346;18.562;2023-02-13T10:31:48;101877.19;;;7.66;79.51
57024;BME280;42916;54.346;18.562;2023-02-13T10:34:21;101856.35;;;7.64;79.30
57024;BME280;42916;54.346;18.562;2023-02-13T10:36:51;101859.43;;;7.63;78.93
57024;BME280;42916;54.346;18.562;2023-02-13T10:44:28;101836.50;;;7.62;79.47
57024;BME280;42916;54.346;18.562;2023-02-13T11:01:19;101862.83;;;7.67;77.76
57024;BME280;42916;54.346;18.562;2023-02-13T11:04:01;101870.13;;;7.69;77.10
57024;BME280;42916;54.346;18.562;2023-02-13T11:06:29;101869.52;;;7.71;77.94
57024;BME280;42916;54.346;18.562;2023-02-13T11:08:56;101864.70;;;7.76;77.44
57024;BME280;42916;54.346;18.562;2023-02-13T11:11:35;101857.16;;;7.79;76.80
57024;BME280;42916;54.346;18.562;2023-02-13T11:17:03;101847.71;;;7.88;77.08
57024;BME280;42916;54.346;18.562;2023-02-13T11:19:32;101847.78;;;7.94;75.55
57024;BME280;42916;54.346;18.562;2023-02-13T11:22:03;101842.02;;;7.91;75.23
57024;BME280;42916;54.346;18.562;2023-02-13T11:24:31;101838.48;;;7.90;75.39
57024;BME280;42916;54.346;18.562;2023-02-13T11:27:04;101829.71;;;7.87;75.15
57024;BME280;42916;54.346;18.562;2023-02-13T11:29:36;101826.02;;;7.82;75.96
57024;BME280;42916;54.346;18.562;2023-02-13T11:32:17;101833.05;;;7.78;76.03
57024;BME280;42916;54.346;18.562;2023-02-13T11:34:45;101819.21;;;7.71;76.45
57024;BME280;42916;54.346;18.562;2023-02-13T11:37:14;101802.80;;;7.62;75.81
57024;BME280;42916;54.346;18.562;2023-02-13T11:39:43;101812.42;;;7.54;75.57
57024;BME280;42916;54.346;18.562;2023-02-13T11:42:20;101813.53;;;7.50;75.93
57024;BME280;42916;54.346;18.562;2023-02-13T11:44:52;101808.83;;;7.52;76.48
57024;BME280;42916;54.346;18.562;2023-02-13T11:50:30;101815.96;;;7.71;76.68
57024;BME280;42916;54.346;18.562;2023-02-13T12:00:33;101802.95;;;7.89;74.45
57024;BME280;42916;54.346;18.562;2023-02-13T12:03:24;101807.13;;;7.94;74.04
57024;BME280;42916;54.346;18.562;2023-02-13T12:08:38;101786.33;;;8.10;73.36
57024;BME280;42916;54.346;18.562;2023-02-13T12:11:27;101786.89;;;8.16;74.01
57024;BME280;42916;54.346;18.562;2023-02-13T12:13:59;101780.44;;;8.20;72.90
57024;BME280;42916;54.346;18.562;2023-02-13T12:16:45;101792.27;;;8.37;73.83
57024;BME280;42916;54.346;18.562;2023-02-13T12:19:24;101797.80;;;8.62;75.23
57024;BME280;42916;54.346;18.562;2023-02-13T12:25:18;101799.24;;;8.96;72.24
57024;BME280;42916;54.346;18.562;2023-02-13T12:28:13;101796.82;;;8.98;70.60
57024;BME280;42916;54.346;18.562;2023-02-13T12:30:57;101791.06;;;8.98;69.65
57024;BME280;42916;54.346;18.562;2023-02-13T12:33:54;101795.19;;;9.05;68.44
57024;BME280;42916;54.346;18.562;2023-02-13T12:36:53;101799.35;;;8.92;67.92
57024;BME280;42916;54.346;18.562;2023-02-13T12:39:36;101818.50;;;8.93;68.33
57024;BME280;42916;54.346;18.562;2023-02-13T12:45:29;101819.61;;;9.13;67.86
57024;BME280;42916;54.346;18.562;2023-02-13T12:51:19;101803.76;;;9.23;66.17
57024;BME280;42916;54.346;18.562;2023-02-13T12:57:03;101809.48;;;9.44;65.63
57024;BME280;42916;54.346;18.562;2023-02-13T13:05:44;101839.50;;;9.71;65.69
57024;BME280;42916;54.346;18.562;2023-02-13T13:08:49;101835.83;;;9.80;64.85
57024;BME280;42916;54.346;18.562;2023-02-13T13:17:34;101821.36;;;9.78;63.02
57024;BME280;42916;54.346;18.562;2023-02-13T13:23:31;101793.06;;;9.97;62.69
57024;BME280;42916;54.346;18.562;2023-02-13T13:28:41;101783.89;;;10.13;61.14
57024;BME280;42916;54.346;18.562;2023-02-13T13:31:11;101782.30;;;10.14;61.17
57024;BME280;42916;54.346;18.562;2023-02-13T13:33:42;101788.59;;;10.17;60.95
57024;BME280;42916;54.346;18.562;2023-02-13T13:47:30;101786.70;;;9.45;61.26
57024;BME280;42916;54.346;18.562;2023-02-13T13:50:23;101786.75;;;9.27;61.44
57024;BME280;42916;54.346;18.562;2023-02-13T13:53:11;101772.55;;;9.10;62.37
57024;BME280;42916;54.346;18.562;2023-02-13T13:56:12;101771.52;;;9.18;63.06
57024;BME280;42916;54.346;18.562;2023-02-13T13:58:48;101791.77;;;8.98;62.87
57024;BME280;42916;54.346;18.562;2023-02-13T14:01:19;101802.77;;;8.74;63.40
57024;BME280;42916;54.346;18.562;2023-02-13T14:03:57;101795.79;;;8.57;64.10
57024;BME280;42916;54.346;18.562;2023-02-13T14:09:46;101785.70;;;8.29;65.25
57024;BME280;42916;54.346;18.562;2023-02-13T14:23:50;101785.74;;;7.71;67.56
57024;BME280;42916;54.346;18.562;2023-02-13T14:33:59;101788.58;;;7.21;70.58
57024;BME280;42916;54.346;18.562;2023-02-13T14:36:30;101788.92;;;7.16;70.85
57024;BME280;42916;54.346;18.562;2023-02-13T14:39:03;101787.41;;;7.14;71.27
57024;BME280;42916;54.346;18.562;2023-02-13T14:41:59;101790.33;;;7.08;71.36
57024;BME280;42916;54.346;18.562;2023-02-13T14:44:45;101776.58;;;7.00;71.26
57024;BME280;42916;54.346;18.562;2023-02-13T14:47:38;101787.98;;;6.94;71.73
57024;BME280;42916;54.346;18.562;2023-02-13T14:50:16;101796.66;;;6.88;72.00
57024;BME280;42916;54.346;18.562;2023-02-13T14:52:46;101785.98;;;6.83;72.29
57024;BME280;42916;54.346;18.562;2023-02-13T14:55:31;101789.80;;;6.77;72.20
57024;BME280;42916;54.346;18.562;2023-02-13T14:58:14;101784.10;;;6.71;72.63
57024;BME280;42916;54.346;18.562;2023-02-13T15:00:52;101774.58;;;6.67;73.05
57024;BME280;42916;54.346;18.562;2023-02-13T15:03:40;101785.14;;;6.64;73.45
57024;BME280;42916;54.346;18.562;2023-02-13T15:06:27;101786.71;;;6.56;73.51
57024;BME280;42916;54.346;18.562;2023-02-13T15:08:56;101776.30;;;6.50;73.64
57024;BME280;42916;54.346;18.562;2023-02-13T15:11:38;101774.40;;;6.43;73.98
57024;BME280;42916;54.346;18.562;2023-02-13T15:14:22;101777.65;;;6.37;74.38
57024;BME280;42916;54.346;18.562;2023-02-13T15:16:54;101768.94;;;6.31;74.81
57024;BME280;42916;54.346;18.562;2023-02-13T15:19:24;101773.52;;;6.28;75.13
57024;BME280;42916;54.346;18.562;2023-02-13T15:22:02;101777.06;;;6.24;75.54
57024;BME280;42916;54.346;18.562;2023-02-13T15:24:37;101782.65;;;6.18;75.53
57024;BME280;42916;54.346;18.562;2023-02-13T15:27:18;101787.89;;;6.13;75.59
57024;BME280;42916;54.346;18.562;2023-02-13T15:32:32;101802.99;;;6.05;76.43
57024;BME280;42916;54.346;18.562;2023-02-13T15:35:00;101801.61;;;6.03;76.91
57024;BME280;42916;54.346;18.562;2023-02-13T15:37:28;101796.15;;;5.98;77.01
57024;BME280;42916;54.346;18.562;2023-02-13T15:40:12;101797.65;;;5.94;77.22
57024;BME280;42916;54.346;18.562;2023-02-13T15:42:40;101794.64;;;5.88;77.74
57024;BME280;42916;54.346;18.562;2023-02-13T15:45:15;101793.96;;;5.83;78.05
57024;BME280;42916;54.346;18.562;2023-02-13T15:47:44;101791.84;;;5.80;78.55
57024;BME280;42916;54.346;18.562;2023-02-13T15:50:29;101792.27;;;5.78;78.71